Time;durP1;ratioP1;P1;durP2;ratioP2;P2;SDS_P1;SDS_P2;PMS_P1;PMS_P2;Temp;Humidity;BMP_temperature;BMP_pressure;BME280_temperature;BME280_humidity;BME280_pressure;Samples;Min_cycle;Max_cycle;Signal;HPM_P1;HPM_P2
2022/12/27 00:02:11;;;;;;;;;;;17.00;45.90;;;;;;5093397;28;19920;-64
2022/12/27 00:04:36;;;;;;;;;;;17.40;45.10;;;;;;5075354;28;20022;-71
2022/12/27 00:07:02;;;;;;;;;;;17.80;44.40;;;;;;5075318;28;19973;-71
2022/12/27 00:09:27;;;;;;;;;;;18.30;43.60;;;;;;5075276;28;19973;-64
2022/12/27 00:11:53;;;;;;;;;;;18.80;42.70;;;;;;5093475;28;19920;-63
2022/12/27 00:14:18;;;;;;;;;;;19.40;41.70;;;;;;5074783;28;20019;-72
2022/12/27 00:16:44;;;;;;;;;;;20.10;40.60;;;;;;5093144;28;19970;-64
2022/12/27 00:19:10;;;;;;;;;;;20.70;39.50;;;;;;5075007;28;19971;-64
2022/12/27 00:21:35;;;;;;;;;;;21.30;38.60;;;;;;5074942;28;19959;-64
2022/12/27 00:24:01;;;;;;;;;;;21.80;37.80;;;;;;5074795;28;19927;-64
2022/12/27 00:26:29;;;;;;;;;;;22.30;37.00;;;;;;5093191;28;19970;-72
2022/12/27 00:28:55;;;;;;;;;;;22.60;36.40;;;;;;5092955;28;19920;-72
2022/12/27 00:31:22;;;;;;;;;;;23.10;35.80;;;;;;5074927;28;19985;-73
2022/12/27 00:33:49;;;;;;;;;;;23.30;35.30;;;;;;5074713;28;19967;-72
2022/12/27 00:36:16;;;;;;;;;;;23.60;35.00;;;;;;5075070;28;19920;-64
2022/12/27 00:38:41;;;;;;;;;;;23.70;34.80;;;;;;5074751;28;19920;-64
2022/12/27 00:41:07;;;;;;;;;;;23.80;34.60;;;;;;5092903;28;19927;-72
2022/12/27 00:43:33;;;;;;;;;;;23.80;34.70;;;;;;5074984;28;20334;-64
2022/12/27 00:45:58;;;;;;;;;;;23.70;34.70;;;;;;5074593;28;19920;-72
2022/12/27 00:48:24;;;;;;;;;;;23.70;34.90;;;;;;5074558;28;20010;-64
2022/12/27 00:50:49;;;;;;;;;;;23.50;35.10;;;;;;5074562;28;19924;-72
2022/12/27 00:53:15;;;;;;;;;;;23.40;35.10;;;;;;5074683;28;19924;-63
2022/12/27 00:55:41;;;;;;;;;;;23.20;35.40;;;;;;5074810;28;19920;-64
2022/12/27 00:58:07;;;;;;;;;;;23.10;35.70;;;;;;5074484;28;19924;-72
2022/12/27 01:00:32;;;;;;;;;;;22.90;35.80;;;;;;5092476;28;19965;-64
2022/12/27 01:02:58;;;;;;;;;;;22.80;36.10;;;;;;5092549;28;19925;-64
2022/12/27 01:05:23;;;;;;;;;;;22.60;36.30;;;;;;5092502;28;20350;-64
2022/12/27 01:07:49;;;;;;;;;;;22.40;36.50;;;;;;5092866;28;20054;-64
2022/12/27 01:10:14;;;;;;;;;;;22.30;36.90;;;;;;5074309;28;19920;-64
2022/12/27 01:12:40;;;;;;;;;;;22.10;37.00;;;;;;5074052;28;19954;-64
2022/12/27 01:15:06;;;;;;;;;;;21.90;37.30;;;;;;5092372;28;19924;-72
2022/12/27 01:17:32;;;;;;;;;;;21.80;37.60;;;;;;5074265;28;20015;-63
2022/12/27 01:19:58;;;;;;;;;;;21.50;37.60;;;;;;5074426;28;20063;-64
2022/12/27 01:22:23;;;;;;;;;;;21.50;38.00;;;;;;5074249;28;19920;-64
2022/12/27 01:24:49;;;;;;;;;;;21.30;38.10;;;;;;5092291;28;19920;-64
2022/12/27 01:27:15;;;;;;;;;;;21.10;38.30;;;;;;5074542;28;20410;-72
2022/12/27 01:29:40;;;;;;;;;;;21.00;38.60;;;;;;5092233;28;19973;-64
2022/12/27 01:32:06;;;;;;;;;;;20.80;38.80;;;;;;5092356;28;20010;-64
2022/12/27 01:34:31;;;;;;;;;;;20.70;39.10;;;;;;5093064;28;19920;-64
2022/12/27 01:36:57;;;;;;;;;;;20.50;39.20;;;;;;5096271;28;19924;-64
2022/12/27 01:39:22;;;;;;;;;;;20.30;39.50;;;;;;5096541;28;19920;-64
2022/12/27 01:47:36;;;;;;;;;;;20.00;40.20;;;;;;5089846;28;19912;-71
2022/12/27 01:55:32;;;;;;;;;;;19.60;40.70;;;;;;5089988;28;20267;-72
2022/12/27 01:58:01;;;;;;;;;;;19.50;40.80;;;;;;5088920;28;19920;-63
2022/12/27 02:00:27;;;;;;;;;;;19.40;41.00;;;;;;5089999;28;20295;-63
2022/12/27 02:02:53;;;;;;;;;;;19.30;41.20;;;;;;5088802;28;19920;-63
2022/12/27 02:05:19;;;;;;;;;;;19.20;41.20;;;;;;5088896;28;20611;-63
2022/12/27 02:08:01;;;;;;;;;;;19.10;41.40;;;;;;5087768;28;19927;-63
2022/12/27 02:10:27;;;;;;;;;;;19.00;41.40;;;;;;5088503;28;19928;-63
2022/12/27 02:12:53;;;;;;;;;;;18.90;41.60;;;;;;5088242;28;19920;-63
2022/12/27 02:15:18;;;;;;;;;;;18.80;41.80;;;;;;5088239;28;19970;-63
2022/12/27 02:17:44;;;;;;;;;;;18.70;41.90;;;;;;5087441;28;20372;-63
2022/12/27 02:20:11;;;;;;;;;;;18.60;41.90;;;;;;5089254;28;20010;-72
2022/12/27 02:30:41;;;;;;;;;;;18.30;42.40;;;;;;5089698;28;19912;-63
2022/12/27 02:33:12;;;;;;;;;;;18.20;42.50;;;;;;5088234;28;19920;-71
2022/12/27 02:35:42;;;;;;;;;;;18.20;42.70;;;;;;5089656;28;20322;-63
2022/12/27 02:38:12;;;;;;;;;;;18.10;42.80;;;;;;5088268;28;19921;-70
2022/12/27 03:03:33;;;;;;;;;;;17.40;43.70;;;;;;5174080;27;20409;-63
2022/12/27 03:06:39;;;;;;;;;;;17.40;43.80;;;;;;5174549;27;20018;-64
2022/12/27 03:17:28;;;;;;;;;;;17.10;44.30;;;;;;5088471;28;19921;-63
2022/12/27 03:25:28;;;;;;;;;;;16.90;44.70;;;;;;5088374;28;19943;-64
2022/12/27 03:33:11;;;;;;;;;;;16.80;45.60;;;;;;5088375;28;20003;-63
2022/12/27 03:33:31;;;;;;;;;;;16.70;45.00;;;;;;5069088;28;20310;-63
2022/12/27 03:38:51;;;;;;;;;;;16.60;45.30;;;;;;5068052;28;19928;-63
2022/12/27 03:44:23;;;;;;;;;;;16.40;45.50;;;;;;5067500;28;20007;-63
2022/12/27 03:49:43;;;;;;;;;;;16.30;45.70;;;;;;5089906;28;19931;-63
2022/12/27 03:54:56;;;;;;;;;;;16.30;45.90;;;;;;5089850;28;20402;-63
2022/12/27 03:57:23;;;;;;;;;;;16.20;46.00;;;;;;5088434;28;19920;-63
2022/12/27 03:59:48;;;;;;;;;;;16.10;46.00;;;;;;5088317;28;19924;-71
2022/12/27 04:02:14;;;;;;;;;;;16.20;46.10;;;;;;5088750;28;19920;-64
2022/12/27 04:04:40;;;;;;;;;;;16.10;46.10;;;;;;5088364;28;19924;-63
2022/12/27 04:07:06;;;;;;;;;;;16.10;46.20;;;;;;5088551;28;20007;-64
2022/12/27 04:34:51;;;;;;;;;;;16.00;46.60;;;;;;5087718;28;19924;-64
2022/12/27 04:37:06;;;;;;;;;;;16.00;46.60;;;;;;5087933;28;19921;-64
2022/12/27 04:39:32;;;;;;;;;;;16.00;46.60;;;;;;5089086;28;19943;-64
2022/12/27 04:55:57;;;;;;;;;;;15.90;46.70;;;;;;5087431;28;20027;-70
2022/12/27 04:58:23;;;;;;;;;;;15.90;46.70;;;;;;5087617;28;20019;-64
2022/12/27 05:03:35;;;;;;;;;;;15.90;46.70;;;;;;5088440;28;20027;-64
2022/12/27 05:06:01;;;;;;;;;;;15.80;46.60;;;;;;5076486;28;19921;-64
2022/12/27 05:13:58;;;;;;;;;;;15.80;46.70;;;;;;5076347;28;19935;-64
2022/12/27 05:16:24;;;;;;;;;;;15.80;46.80;;;;;;5073915;28;19920;-63
2022/12/27 05:18:51;;;;;;;;;;;15.80;46.80;;;;;;5073594;28;20387;-64
2022/12/27 05:21:16;;;;;;;;;;;15.70;46.70;;;;;;5090816;28;19927;-64
2022/12/27 05:26:28;;;;;;;;;;;15.80;46.90;;;;;;5074647;28;19927;-72
2022/12/27 05:28:54;;;;;;;;;;;15.80;46.80;;;;;;5074853;28;20295;-64
2022/12/27 05:31:21;;;;;;;;;;;15.80;46.80;;;;;;5073451;28;19920;-72
2022/12/27 05:33:47;;;;;;;;;;;15.80;46.80;;;;;;5073388;28;19925;-64
2022/12/27 05:36:12;;;;;;;;;;;16.10;46.60;;;;;;5073584;28;19920;-72
2022/12/27 05:38:38;;;;;;;;;;;16.40;46.20;;;;;;5073205;28;20319;-65
2022/12/27 05:41:04;;;;;;;;;;;16.80;45.70;;;;;;5074545;28;19921;-64
2022/12/27 05:43:30;;;;;;;;;;;17.30;44.90;;;;;;5074520;28;19928;-73
2022/12/27 05:46:01;;;;;;;;;;;17.80;44.00;;;;;;5073492;28;20261;-72
2022/12/27 05:48:26;;;;;;;;;;;18.30;43.10;;;;;;5073050;28;19920;-64
2022/12/27 05:50:52;;;;;;;;;;;19.10;41.80;;;;;;5074268;28;19920;-64
2022/12/27 05:53:17;;;;;;;;;;;19.80;40.70;;;;;;5072471;28;19974;-64
2022/12/27 05:55:43;;;;;;;;;;;20.50;39.50;;;;;;5072899;28;19927;-64
2022/12/27 05:58:09;;;;;;;;;;;21.20;38.40;;;;;;5073235;28;19920;-64
2022/12/27 06:00:34;;;;;;;;;;;21.80;37.30;;;;;;5072784;28;19966;-64
2022/12/27 06:03:00;;;;;;;;;;;22.40;36.40;;;;;;5074138;28;19920;-64
2022/12/27 06:05:26;;;;;;;;;;;22.90;35.70;;;;;;5089805;28;19996;-73
2022/12/27 06:07:52;;;;;;;;;;;23.30;35.20;;;;;;5072720;28;19920;-64
2022/12/27 06:10:17;;;;;;;;;;;23.60;34.60;;;;;;5055948;28;19931;-64
2022/12/27 06:12:43;;;;;;;;;;;23.90;34.30;;;;;;5089337;28;19920;-64
2022/12/27 06:15:10;;;;;;;;;;;24.10;34.00;;;;;;5073082;28;19921;-64
2022/12/27 06:17:36;;;;;;;;;;;24.30;33.80;;;;;;5070628;28;19920;-64
2022/12/27 06:20:01;;;;;;;;;;;24.20;33.70;;;;;;5072257;28;19928;-64
2022/12/27 06:22:27;;;;;;;;;;;24.30;33.70;;;;;;5073611;28;19920;-64
2022/12/27 06:24:53;;;;;;;;;;;24.20;33.80;;;;;;5073798;28;20380;-64
2022/12/27 06:27:18;;;;;;;;;;;24.10;34.00;;;;;;5073653;28;20007;-64
2022/12/27 06:29:44;;;;;;;;;;;23.90;34.20;;;;;;5072547;28;20435;-65
2022/12/27 06:32:09;;;;;;;;;;;23.70;34.40;;;;;;5072477;28;20007;-64
2022/12/27 06:34:35;;;;;;;;;;;23.60;34.70;;;;;;5072063;28;19938;-64
2022/12/27 06:37:00;;;;;;;;;;;23.40;34.70;;;;;;5072078;28;20018;-64
2022/12/27 06:39:26;;;;;;;;;;;23.20;35.20;;;;;;5072341;28;19920;-64
2022/12/27 06:41:54;;;;;;;;;;;23.00;35.40;;;;;;5073400;28;20265;-64
2022/12/27 06:44:19;;;;;;;;;;;22.80;35.60;;;;;;5072202;28;20296;-64
2022/12/27 06:46:45;;;;;;;;;;;22.70;35.80;;;;;;5073162;28;19921;-64
2022/12/27 06:49:10;;;;;;;;;;;22.50;36.10;;;;;;5073120;28;19921;-73
2022/12/27 06:51:36;;;;;;;;;;;22.30;36.30;;;;;;5072970;28;19921;-64
2022/12/27 06:54:01;;;;;;;;;;;22.20;36.50;;;;;;5071416;28;19971;-64
2022/12/27 06:56:27;;;;;;;;;;;22.00;36.60;;;;;;5071994;28;19975;-64
2022/12/27 06:58:53;;;;;;;;;;;21.90;36.80;;;;;;5071753;28;19920;-64
2022/12/27 07:01:20;;;;;;;;;;;21.70;37.00;;;;;;5072897;28;19951;-64
2022/12/27 07:03:48;;;;;;;;;;;21.50;37.30;;;;;;5071605;28;20014;-64
2022/12/27 07:06:13;;;;;;;;;;;21.40;37.50;;;;;;5072790;28;19942;-65
2022/12/27 07:08:39;;;;;;;;;;;21.20;37.70;;;;;;5072722;28;20369;-64
2022/12/27 07:11:06;;;;;;;;;;;21.10;38.00;;;;;;5072689;28;19921;-64
2022/12/27 07:13:33;;;;;;;;;;;20.90;38.30;;;;;;5072663;28;19932;-64
2022/12/27 07:15:58;;;;;;;;;;;20.70;38.40;;;;;;5071560;28;19920;-64
2022/12/27 07:18:24;;;;;;;;;;;20.60;38.70;;;;;;5071705;28;20520;-64
2022/12/27 07:20:49;;;;;;;;;;;20.40;38.80;;;;;;5071387;28;20012;-64
2022/12/27 07:23:15;;;;;;;;;;;20.30;39.00;;;;;;5071204;28;19971;-64
2022/12/27 07:25:40;;;;;;;;;;;20.20;39.20;;;;;;5071667;28;19982;-64
2022/12/27 07:28:06;;;;;;;;;;;20.10;39.60;;;;;;5071275;28;20275;-65
2022/12/27 07:30:32;;;;;;;;;;;20.00;39.60;;;;;;5072646;28;19920;-64
2022/12/27 07:32:57;;;;;;;;;;;19.80;39.80;;;;;;5071092;28;20030;-65
2022/12/27 07:35:23;;;;;;;;;;;19.70;40.00;;;;;;5071544;28;19964;-73
2022/12/27 07:37:48;;;;;;;;;;;19.60;40.20;;;;;;5071074;28;20264;-64
2022/12/27 07:40:14;;;;;;;;;;;19.50;40.30;;;;;;5071428;28;20035;-72
2022/12/27 07:42:39;;;;;;;;;;;19.40;40.50;;;;;;5072385;28;20014;-64
2022/12/27 07:45:05;;;;;;;;;;;19.30;40.60;;;;;;5071423;28;20375;-64
2022/12/27 07:47:31;;;;;;;;;;;19.30;40.80;;;;;;5070989;28;19999;-64
2022/12/27 07:49:56;;;;;;;;;;;19.20;40.80;;;;;;5071358;28;19924;-64
2022/12/27 07:52:22;;;;;;;;;;;19.10;41.00;;;;;;5072213;28;20561;-64
2022/12/27 07:54:47;;;;;;;;;;;19.00;41.10;;;;;;5070676;28;19936;-64
2022/12/27 07:57:13;;;;;;;;;;;18.90;41.20;;;;;;5070964;28;19927;-64
2022/12/27 07:59:38;;;;;;;;;;;18.80;41.30;;;;;;5072167;28;19927;-64
2022/12/27 08:02:04;;;;;;;;;;;18.70;41.40;;;;;;5070893;28;19920;-64
2022/12/27 08:04:30;;;;;;;;;;;18.70;41.50;;;;;;5072185;28;19920;-64
2022/12/27 08:06:59;;;;;;;;;;;18.60;41.70;;;;;;5072186;28;19928;-64
2022/12/27 08:09:27;;;;;;;;;;;18.50;41.70;;;;;;5071119;28;19987;-64
2022/12/27 08:11:52;;;;;;;;;;;18.40;41.90;;;;;;5070802;28;19921;-64
2022/12/27 08:14:17;;;;;;;;;;;18.30;42.00;;;;;;5070664;28;19936;-64
2022/12/27 08:16:43;;;;;;;;;;;18.30;42.10;;;;;;5071085;28;19920;-64
2022/12/27 08:19:09;;;;;;;;;;;18.20;42.30;;;;;;5070612;28;19944;-64
2022/12/27 08:21:34;;;;;;;;;;;18.20;42.40;;;;;;5070883;28;20053;-64
2022/12/27 08:24:00;;;;;;;;;;;18.10;42.50;;;;;;5071947;28;19985;-64
2022/12/27 08:26:25;;;;;;;;;;;18.00;42.50;;;;;;5071811;28;19920;-64
2022/12/27 08:28:51;;;;;;;;;;;17.90;42.60;;;;;;5071647;28;19927;-64
2022/12/27 08:31:16;;;;;;;;;;;17.90;42.80;;;;;;5070358;28;20387;-64
2022/12/27 08:33:42;;;;;;;;;;;17.80;42.90;;;;;;5070416;28;20011;-64
2022/12/27 08:36:09;;;;;;;;;;;17.80;42.90;;;;;;5070528;28;19920;-64
2022/12/27 08:38:34;;;;;;;;;;;17.70;43.00;;;;;;5071733;28;19920;-64
2022/12/27 08:41:00;;;;;;;;;;;17.60;43.10;;;;;;5072873;28;20394;-64
2022/12/27 08:43:26;;;;;;;;;;;17.60;43.20;;;;;;5074318;28;19948;-64
2022/12/27 08:45:51;;;;;;;;;;;17.50;43.30;;;;;;5074439;28;19960;-64
2022/12/27 08:48:17;;;;;;;;;;;17.50;43.40;;;;;;5075211;28;20435;-64
2022/12/27 08:50:42;;;;;;;;;;;17.40;43.50;;;;;;5073757;28;19974;-64
2022/12/27 08:53:09;;;;;;;;;;;17.30;43.60;;;;;;5078327;28;19931;-73
2022/12/27 08:55:34;;;;;;;;;;;17.30;43.70;;;;;;5077091;28;19927;-64
2022/12/27 08:58:02;;;;;;;;;;;17.20;43.90;;;;;;5077531;28;19924;-64
2022/12/27 09:00:29;;;;;;;;;;;17.20;43.90;;;;;;5076978;28;19931;-64
2022/12/27 09:02:54;;;;;;;;;;;17.10;44.10;;;;;;5077551;28;19920;-64
2022/12/27 09:05:21;;;;;;;;;;;17.10;44.20;;;;;;5095547;28;20294;-64
2022/12/27 09:07:47;;;;;;;;;;;17.00;44.20;;;;;;5095520;28;19920;-64
2022/12/27 09:10:12;;;;;;;;;;;16.90;44.30;;;;;;5077198;28;19927;-64
2022/12/27 09:12:38;;;;;;;;;;;16.90;44.40;;;;;;5094965;28;19931;-64
2022/12/27 09:15:04;;;;;;;;;;;16.80;45.30;;;;;;5076696;28;19920;-64
2022/12/27 09:17:29;;;;;;;;;;;16.70;44.70;;;;;;5076766;28;20013;-64
2022/12/27 09:19:55;;;;;;;;;;;16.70;44.80;;;;;;5076722;28;20356;-65
2022/12/27 09:22:20;;;;;;;;;;;16.70;44.90;;;;;;5076467;28;19920;-64
2022/12/27 09:24:46;;;;;;;;;;;16.70;45.20;;;;;;5095234;28;20021;-65
2022/12/27 09:27:11;;;;;;;;;;;17.20;44.90;;;;;;5094397;28;19924;-65
2022/12/27 09:29:37;;;;;;;;;;;17.70;44.20;;;;;;5094758;28;19955;-64
2022/12/27 09:32:03;;;;;;;;;;;18.30;43.20;;;;;;5094916;28;19969;-73
2022/12/27 09:34:28;;;;;;;;;;;19.20;41.80;;;;;;5076511;28;20322;-64
2022/12/27 09:36:54;;;;;;;;;;;20.00;40.30;;;;;;5094701;28;19916;-64
2022/12/27 09:39:19;;;;;;;;;;;20.90;39.00;;;;;;5076582;28;19966;-65
2022/12/27 09:41:57;;;;;;;;;;;21.60;37.70;;;;;;5076895;28;19916;-64
2022/12/27 09:44:28;;;;;;;;;;;22.30;36.70;;;;;;5076907;28;19916;-65
2022/12/27 09:46:56;;;;;;;;;;;22.80;35.60;;;;;;5094346;28;19916;-64
2022/12/27 09:49:27;;;;;;;;;;;23.30;35.10;;;;;;5076188;28;19916;-65
2022/12/27 09:51:56;;;;;;;;;;;23.70;34.50;;;;;;5076126;28;19916;-64
2022/12/27 09:54:25;;;;;;;;;;;24.10;34.10;;;;;;5075693;28;20368;-65
2022/12/27 09:56:51;;;;;;;;;;;24.40;33.60;;;;;;5094406;28;20272;-65
2022/12/27 09:59:28;;;;;;;;;;;24.70;33.30;;;;;;5076449;28;19923;-65
2022/12/27 10:01:53;;;;;;;;;;;24.90;32.90;;;;;;5076329;28;19916;-64
2022/12/27 10:04:19;;;;;;;;;;;25.00;32.60;;;;;;5076191;28;19981;-65
2022/12/27 10:12:27;;;;;;;;;;;24.90;32.70;;;;;;5089623;28;19913;-64
2022/12/27 10:15:13;;;;;;;;;;;24.70;33.00;;;;;;5088500;28;19920;-64
2022/12/27 10:17:44;;;;;;;;;;;24.60;33.20;;;;;;5088393;28;20307;-64
2022/12/27 10:20:30;;;;;;;;;;;24.30;33.40;;;;;;5088498;28;19925;-64
2022/12/27 10:22:57;;;;;;;;;;;24.10;33.60;;;;;;5088465;28;19975;-64
2022/12/27 10:25:24;;;;;;;;;;;23.90;34.10;;;;;;5088712;28;20319;-64
2022/12/27 10:27:54;;;;;;;;;;;23.60;34.20;;;;;;5088623;28;20007;-64
2022/12/27 10:30:20;;;;;;;;;;;23.40;34.50;;;;;;5088256;28;19935;-64
2022/12/27 10:32:47;;;;;;;;;;;23.20;34.70;;;;;;5088537;28;19974;-64
2022/12/27 10:35:15;;;;;;;;;;;23.00;34.90;;;;;;5088234;28;19926;-65
2022/12/27 10:37:41;;;;;;;;;;;22.70;35.40;;;;;;5088467;28;19927;-73
2022/12/27 10:40:10;;;;;;;;;;;22.40;35.60;;;;;;5089440;28;19973;-64
2022/12/27 10:42:37;;;;;;;;;;;22.20;36.00;;;;;;5088369;28;19927;-64
2022/12/27 10:45:23;;;;;;;;;;;21.90;36.30;;;;;;5088020;28;20507;-64
2022/12/27 10:47:48;;;;;;;;;;;21.70;36.70;;;;;;5087758;28;20430;-73
2022/12/27 10:50:14;;;;;;;;;;;21.50;37.10;;;;;;5088082;28;19928;-65
2022/12/27 10:52:40;;;;;;;;;;;21.30;37.30;;;;;;5089210;28;20057;-64
2022/12/27 10:55:25;;;;;;;;;;;21.10;37.60;;;;;;5089113;28;19973;-64
2022/12/27 10:57:51;;;;;;;;;;;21.00;37.90;;;;;;5087282;28;19924;-65
2022/12/27 11:00:19;;;;;;;;;;;20.80;38.10;;;;;;5089010;28;19928;-64
2022/12/27 11:02:48;;;;;;;;;;;20.60;38.20;;;;;;5088011;28;19927;-64
2022/12/27 11:05:19;;;;;;;;;;;20.60;38.50;;;;;;5087676;28;20566;-64
2022/12/27 11:07:44;;;;;;;;;;;20.50;38.60;;;;;;5088961;28;20019;-64
2022/12/27 11:10:14;;;;;;;;;;;20.40;38.80;;;;;;5087333;28;20451;-64
2022/12/27 11:12:53;;;;;;;;;;;20.30;38.90;;;;;;5108968;28;20422;-64
2022/12/27 11:15:19;;;;;;;;;;;20.20;39.00;;;;;;5109033;28;19920;-64
2022/12/27 11:20:29;;;;;;;;;;;20.10;39.20;;;;;;5089149;28;19938;-64
2022/12/27 11:25:44;;;;;;;;;;;20.00;39.40;;;;;;5089960;28;20295;-64
2022/12/27 11:28:20;;;;;;;;;;;19.90;39.40;;;;;;5088616;28;19924;-64
2022/12/27 11:31:02;;;;;;;;;;;19.90;39.60;;;;;;5088805;28;19920;-64
2022/12/27 11:33:48;;;;;;;;;;;19.70;39.70;;;;;;5088514;28;19929;-64
2022/12/27 11:36:21;;;;;;;;;;;19.60;39.80;;;;;;5089600;28;19920;-64
2022/12/27 11:38:48;;;;;;;;;;;19.50;40.00;;;;;;5105376;28;19920;-64
2022/12/27 11:49:53;;;;;;;;;;;19.00;40.70;;;;;;5135434;27;1865162;-64
2022/12/27 11:55:24;;;;;;;;;;;18.70;41.10;;;;;;5127320;27;1873395;-64
2022/12/27 12:00:37;;;;;;;;;;;18.50;41.60;;;;;;5110213;27;19912;-64
2022/12/27 12:03:17;;;;;;;;;;;18.30;41.80;;;;;;5109278;28;19924;-64
2022/12/27 12:08:34;;;;;;;;;;;18.10;42.30;;;;;;5110306;27;20390;-64
2022/12/27 12:11:05;;;;;;;;;;;18.00;42.50;;;;;;5108882;28;19959;-64
2022/12/27 12:13:51;;;;;;;;;;;17.80;42.70;;;;;;5108928;28;19920;-64
2022/12/27 12:16:24;;;;;;;;;;;17.70;42.90;;;;;;5109770;28;19924;-64
2022/12/27 12:21:32;;;;;;;;;;;17.60;43.30;;;;;;5127463;27;1865624;-63
2022/12/27 12:24:18;;;;;;;;;;;17.60;43.50;;;;;;5193460;27;19940;-64
2022/12/27 12:27:03;;;;;;;;;;;17.40;43.60;;;;;;5174053;27;19919;-64
2022/12/27 12:40:51;;;;;;;;;;;17.10;44.20;;;;;;5172371;27;20010;-64
2022/12/27 12:46:00;;;;;;;;;;;17.00;44.40;;;;;;5127564;27;1866376;-64
2022/12/27 12:48:42;;;;;;;;;;;17.00;44.60;;;;;;5174412;27;19919;-71
2022/12/27 12:51:27;;;;;;;;;;;16.90;44.60;;;;;;5174383;27;19943;-64
2022/12/27 12:54:01;;;;;;;;;;;16.90;44.80;;;;;;5192936;27;20338;-64
2022/12/27 13:01:54;;;;;;;;;;;16.80;45.10;;;;;;5129530;27;1867177;-64
2022/12/27 13:04:39;;;;;;;;;;;16.70;45.20;;;;;;5174494;27;20552;-65
2022/12/27 13:07:25;;;;;;;;;;;16.70;45.20;;;;;;5174587;27;19954;-64
2022/12/27 13:10:10;;;;;;;;;;;16.60;45.30;;;;;;5192943;27;19918;-65
2022/12/27 13:12:41;;;;;;;;;;;16.60;45.30;;;;;;5174213;27;19938;-64
2022/12/27 13:15:27;;;;;;;;;;;16.60;45.50;;;;;;5174288;27;19918;-64
2022/12/27 13:18:12;;;;;;;;;;;16.60;45.50;;;;;;5174111;27;20001;-64
2022/12/27 13:23:24;;;;;;;;;;;16.50;45.60;;;;;;5089957;28;19918;-64
2022/12/27 13:31:30;;;;;;;;;;;16.40;45.90;;;;;;5090036;28;20269;-64
2022/12/27 13:34:15;;;;;;;;;;;16.40;45.90;;;;;;5105566;28;20023;-64
2022/12/27 13:37:01;;;;;;;;;;;16.50;46.10;;;;;;5088411;28;19956;-64
2022/12/27 13:39:46;;;;;;;;;;;16.90;45.70;;;;;;5089731;28;20265;-64
2022/12/27 13:47:49;;;;;;;;;;;18.00;43.80;;;;;;5127339;27;1869247;-63
2022/12/27 13:50:22;;;;;;;;;;;18.40;43.20;;;;;;5174504;27;19926;-63
2022/12/27 13:52:56;;;;;;;;;;;18.90;42.40;;;;;;5174701;27;19919;-63
2022/12/27 13:58:15;;;;;;;;;;;20.20;40.30;;;;;;5127370;27;1872140;-64
2022/12/27 14:00:47;;;;;;;;;;;20.90;39.10;;;;;;5174400;27;20366;-64
2022/12/27 14:03:31;;;;;;;;;;;21.60;38.10;;;;;;5193215;27;19919;-64
2022/12/27 14:11:31;;;;;;;;;;;23.20;35.60;;;;;;5128820;27;1862391;-64
2022/12/27 14:13:58;;;;;;;;;;;23.60;35.10;;;;;;5153314;27;20382;-71
2022/12/27 14:16:33;;;;;;;;;;;24.00;34.30;;;;;;5153805;27;20085;-64
2022/12/27 14:19:18;;;;;;;;;;;24.30;33.90;;;;;;5171748;27;19925;-65
2022/12/27 14:38:25;;;;;;;;;;;24.10;34.00;;;;;;5126775;27;1884550;-64
2022/12/27 14:44:06;;;;;;;;;;;23.70;34.60;;;;;;5089777;28;19918;-64
2022/12/27 14:46:51;;;;;;;;;;;23.50;34.80;;;;;;5089702;28;19976;-64
2022/12/27 14:49:32;;;;;;;;;;;23.30;35.00;;;;;;5088279;28;19920;-64
2022/12/27 14:54:57;;;;;;;;;;;22.80;35.60;;;;;;5126962;27;1877353;-64
2022/12/27 14:57:42;;;;;;;;;;;22.50;36.00;;;;;;5174130;27;19963;-65
2022/12/27 15:00:24;;;;;;;;;;;22.20;36.30;;;;;;5174128;27;19919;-64
2022/12/27 15:05:39;;;;;;;;;;;21.70;37.10;;;;;;5110232;27;19919;-64
2022/12/27 15:11:10;;;;;;;;;;;21.30;37.70;;;;;;5127431;27;1868952;-72
2022/12/27 15:13:55;;;;;;;;;;;21.10;38.00;;;;;;5173826;27;19918;-73
2022/12/27 15:16:40;;;;;;;;;;;20.90;38.20;;;;;;5174125;27;20428;-64
2022/12/27 15:24:46;;;;;;;;;;;20.50;38.90;;;;;;5089882;28;20386;-64
2022/12/27 15:32:58;;;;;;;;;;;20.30;39.40;;;;;;5110100;27;20371;-64
2022/12/27 15:35:34;;;;;;;;;;;20.30;39.50;;;;;;5092067;28;19920;-64
2022/12/27 15:38:17;;;;;;;;;;;20.20;39.80;;;;;;5092082;28;19920;-71
2022/12/27 15:40:47;;;;;;;;;;;20.10;39.60;;;;;;5091911;28;20379;-64
2022/12/27 15:43:32;;;;;;;;;;;20.00;39.70;;;;;;5091502;28;19920;-64
2022/12/27 15:46:11;;;;;;;;;;;20.00;39.90;;;;;;5091638;28;19927;-72
2022/12/27 15:56:48;;;;;;;;;;;19.60;40.20;;;;;;5089925;28;20345;-72
2022/12/27 15:59:34;;;;;;;;;;;19.50;40.40;;;;;;5088790;28;19924;-64
2022/12/27 16:02:19;;;;;;;;;;;19.40;41.00;;;;;;5105251;28;19952;-64
2022/12/27 16:04:47;;;;;;;;;;;19.30;40.80;;;;;;5087528;28;19921;-64
2022/12/27 16:07:32;;;;;;;;;;;19.20;41.00;;;;;;5088538;28;19925;-64
2022/12/27 16:09:58;;;;;;;;;;;19.10;41.20;;;;;;5089224;28;19920;-64
2022/12/27 16:12:36;;;;;;;;;;;18.90;41.30;;;;;;5088028;28;20015;-73
2022/12/27 16:15:21;;;;;;;;;;;18.80;41.50;;;;;;5087996;28;19971;-73
2022/12/27 16:17:54;;;;;;;;;;;18.70;41.70;;;;;;5089450;28;19928;-64
2022/12/27 16:20:20;;;;;;;;;;;18.50;41.90;;;;;;5088506;28;19947;-64
2022/12/27 16:22:55;;;;;;;;;;;18.40;42.10;;;;;;5089487;28;19920;-73
2022/12/27 16:25:37;;;;;;;;;;;18.30;42.40;;;;;;5089346;28;19928;-72
2022/12/27 16:30:46;;;;;;;;;;;18.00;42.80;;;;;;5127585;27;1864510;-64
2022/12/27 16:47:22;;;;;;;;;;;17.40;44.00;;;;;;5090008;28;20319;-72
2022/12/27 16:50:07;;;;;;;;;;;17.40;44.20;;;;;;5088348;28;19955;-72
2022/12/27 16:52:44;;;;;;;;;;;17.30;44.30;;;;;;5088675;28;19921;-64
2022/12/27 16:57:49;;;;;;;;;;;17.20;44.60;;;;;;5127642;27;1864711;-64
2022/12/27 17:00:34;;;;;;;;;;;17.10;44.70;;;;;;5174319;27;20476;-72
2022/12/27 17:03:19;;;;;;;;;;;17.10;44.80;;;;;;5193180;27;20297;-64
2022/12/27 17:05:45;;;;;;;;;;;17.10;44.90;;;;;;5174407;27;20429;-65
2022/12/27 17:13:34;;;;;;;;;;;16.90;45.10;;;;;;5129613;27;1861429;-64
2022/12/27 17:16:18;;;;;;;;;;;16.90;45.30;;;;;;5193372;27;20292;-72
2022/12/27 17:24:07;;;;;;;;;;;16.80;45.50;;;;;;5127173;27;1877804;-64
2022/12/27 17:37:41;;;;;;;;;;;16.60;45.90;;;;;;5127642;27;1863097;-64
2022/12/27 17:48:36;;;;;;;;;;;16.50;46.10;;;;;;5110219;27;19944;-72
2022/12/27 17:51:04;;;;;;;;;;;16.50;46.10;;;;;;5109163;28;19920;-64
2022/12/27 17:59:11;;;;;;;;;;;16.50;46.30;;;;;;5108805;28;20295;-64
2022/12/27 18:01:40;;;;;;;;;;;16.40;46.30;;;;;;5108675;28;20383;-64
2022/12/27 18:04:06;;;;;;;;;;;16.40;46.40;;;;;;5108977;28;20432;-64
2022/12/27 18:06:32;;;;;;;;;;;16.40;46.40;;;;;;5108590;28;19924;-74
2022/12/27 18:08:58;;;;;;;;;;;16.40;46.50;;;;;;5108603;28;19924;-66
2022/12/27 18:11:30;;;;;;;;;;;16.30;46.50;;;;;;5108214;28;19927;-66
2022/12/27 18:13:57;;;;;;;;;;;16.40;46.60;;;;;;5109644;28;19920;-66
2022/12/27 18:16:25;;;;;;;;;;;16.30;46.60;;;;;;5108629;28;20011;-66
2022/12/27 18:18:52;;;;;;;;;;;16.30;46.60;;;;;;5108758;28;19920;-66
2022/12/27 18:21:23;;;;;;;;;;;16.30;46.70;;;;;;5108429;28;19924;-66
2022/12/27 18:23:51;;;;;;;;;;;16.30;46.70;;;;;;5109702;28;19998;-66
2022/12/27 18:26:17;;;;;;;;;;;16.20;46.70;;;;;;5109575;28;19919;-67
2022/12/27 18:28:43;;;;;;;;;;;16.20;46.90;;;;;;5108194;28;20450;-66
2022/12/27 18:36:39;;;;;;;;;;;16.40;47.10;;;;;;5090011;28;19934;-64
2022/12/27 18:39:12;;;;;;;;;;;16.80;46.40;;;;;;5088541;28;19928;-64
2022/12/27 18:41:41;;;;;;;;;;;17.20;45.90;;;;;;5089854;28;19936;-64
2022/12/27 18:44:13;;;;;;;;;;;17.60;45.30;;;;;;5088517;28;19920;-64
2022/12/27 18:46:38;;;;;;;;;;;18.20;44.40;;;;;;5088822;28;20007;-72
2022/12/27 18:49:05;;;;;;;;;;;18.70;43.40;;;;;;5088723;28;20011;-63
2022/12/27 18:51:35;;;;;;;;;;;19.40;42.10;;;;;;5088707;28;19927;-64
2022/12/27 18:54:01;;;;;;;;;;;20.20;40.90;;;;;;5088245;28;20003;-64
2022/12/27 18:56:31;;;;;;;;;;;21.00;39.70;;;;;;5088229;28;19966;-64
2022/12/27 18:58:59;;;;;;;;;;;21.60;38.50;;;;;;5089608;28;20339;-64
2022/12/27 19:01:33;;;;;;;;;;;22.20;37.60;;;;;;5088392;28;20383;-73
2022/12/27 19:07:11;;;;;;;;;;;23.10;36.00;;;;;;5172366;27;20002;-64
2022/12/27 19:09:40;;;;;;;;;;;23.60;35.30;;;;;;5153849;27;19987;-64
2022/12/27 19:12:16;;;;;;;;;;;23.90;34.80;;;;;;5153837;27;19919;-64
2022/12/27 19:14:43;;;;;;;;;;;24.10;34.60;;;;;;5153429;27;19922;-64
2022/12/27 19:17:15;;;;;;;;;;;24.20;34.40;;;;;;5153416;27;19919;-64
2022/12/27 19:19:44;;;;;;;;;;;24.20;34.30;;;;;;5153558;27;19926;-64
2022/12/27 19:22:29;;;;;;;;;;;24.20;34.40;;;;;;5153445;27;19919;-64
2022/12/27 19:24:59;;;;;;;;;;;24.10;34.50;;;;;;5153247;27;19967;-64
2022/12/27 19:27:24;;;;;;;;;;;24.00;34.50;;;;;;5153522;27;19919;-64
2022/12/27 19:29:50;;;;;;;;;;;23.80;34.80;;;;;;5153144;27;19919;-73
2022/12/27 19:32:19;;;;;;;;;;;23.70;35.00;;;;;;5153470;27;19919;-65
2022/12/27 19:34:46;;;;;;;;;;;23.50;35.10;;;;;;5153178;27;19919;-73